Terminal Aerodrome Forecast
Issued by NWS

Home | Current Version | Previous Version | Text Only | Print | Product List | Glossary On
Versions: 1 2 3 4 5 6 7 8 9 10 11 12 13 14 15 16 17 18
000
FTUS45 KABQ 081729
TAFLVS
TAF
KLVS 081729Z 0818/0918 19015KT P6SM OVC020
      TEMPO 0818/0820 4SM -SN BKN010
     FM082100 18014G22KT P6SM BKN040
     FM090000 19011KT P6SM SCT060
     FM090700 21012KT P6SM SCT080=

USA.gov is the U.S. government's official web portal to all federal, state and local government web resources and services.